Terminal Aerodrome Forecast
Issued by NWS

Home | Current Version | Previous Version | Text Only | Print | Product List | Glossary On
Versions: 1 2 3 4 5 6 7 8 9 10 11 12 13 14 15 16 17 18 19 20 21
000
FTUS42 TJSJ 222100 AAA
TAFNCM
TAF AMD
TNCM 222158Z 2222/2318 13011KT P6SM VCSH SCT016
     FM230200 12008KT P6SM SCT020
     FM230500 12008KT P6SM FEW025=

USA.gov is the U.S. government's official web portal to all federal, state and local government web resources and services.